Holicong, PA

1:24 PM EST on December 06, 2016 (GMT -0500)
Holicong Road | | Change Station

Elev 285 ft 40.33 °N, 75.03 °W | Updated 14 seconds ago

Overcast
Overcast
43.0 °F
Feels Like 43 °F
N
1.0
Wind Variable Wind from North
Gusts 7.0 mph

Today
High -- | Low -- °F
--% Chance of Precip.
Yesterday
High -- | Low -- °F
Precip. -- in
Pressure 30.02 in
Visibility 10.0 miles
Clouds Overcast 10000 ft
Windchill 43 °F
Dew Point Not available.
Humidity Not available.
Rainfall 0.00 in
Snow Depth Not available.
7:09 AM 4:33 PM
Waxing Crescent, 44% visible
METAR KDYL 061754Z AUTO 00000KT 10SM OVC100 07/M01 A3000 RMK AO2 SLP165 T00671006 10067 20011 58037
Pressure 30.02 in
Visibility 10.0 miles
Clouds Overcast 10000 ft
Windchill 43 °F
Dew Point Not available.
Humidity Not available.
Rainfall 0.00 in
Snow Depth Not available.
7:09 AM 4:33 PM
Waxing Crescent, 44% visible
METAR KDYL 061754Z AUTO 00000KT 10SM OVC100 07/M01 A3000 RMK AO2 SLP165 T00671006 10067 20011 58037

10-Day Weather Forecast

Almanac

Astronomy

Dec. 06, 2016 Rise Set
Actual Time
Civil Twilight
Nautical Twilight
Astronomical Twilight
Moon
Length of Visible Light
Length of Day
Tomorrow will be .
, % of the Moon is Illuminated

Today's Extremes

State Highs State Lows

Community

WunderPhotos

Upload Photos

1,955,999 photos uploaded!

WunderBlog® & News

Nearby

Air Quality

  Air Quality AQ Index Pollutant
Not available.

Snow Depth

Station Depth Elevation

Earthquake Activity

City Distance Mag. Time & Date
Minimum magnitude displayed is 2.5.

Coastal Water Temperatures

Place Temperature

Stations

Nearby Weather Stations

Station Location Temp. Windchill Dew Point Humidity Wind Precip. Elev Updated Type
                   

Watches & Warnings

There are currently no watches in effect.